sensor_id;sensor_type;location;lat;lon;timestamp;pressure;altitude;pressure_sealevel;temperature;humidity
39341;BME280;25059;52.132;21.062;2023-05-08T00:01:01;101712.69;;;11.23;70.44
39341;BME280;25059;52.132;21.062;2023-05-08T00:03:45;101704.72;;;11.27;70.27
39341;BME280;25059;52.132;21.062;2023-05-08T00:06:30;101710.41;;;11.49;68.64
39341;BME280;25059;52.132;21.062;2023-05-08T00:09:14;101714.72;;;11.53;68.51
39341;BME280;25059;52.132;21.062;2023-05-08T00:11:59;101702.56;;;11.46;68.58
39341;BME280;25059;52.132;21.062;2023-05-08T00:14:43;101708.84;;;11.41;68.06
39341;BME280;25059;52.132;21.062;2023-05-08T00:17:28;101708.81;;;11.42;67.81
39341;BME280;25059;52.132;21.062;2023-05-08T00:20:12;101712.06;;;11.53;67.74
39341;BME280;25059;52.132;21.062;2023-05-08T00:22:57;101711.38;;;11.45;68.19
39341;BME280;25059;52.132;21.062;2023-05-08T00:25:42;101725.25;;;11.53;68.06
39341;BME280;25059;52.132;21.062;2023-05-08T00:28:27;101711.53;;;11.38;69.08
39341;BME280;25059;52.132;21.062;2023-05-08T00:31:11;101728.22;;;11.37;69.24
39341;BME280;25059;52.132;21.062;2023-05-08T00:33:57;101717.97;;;11.66;67.69
39341;BME280;25059;52.132;21.062;2023-05-08T00:36:42;101728.75;;;11.54;67.70
39341;BME280;25059;52.132;21.062;2023-05-08T00:39:26;101714.84;;;11.47;68.54
39341;BME280;25059;52.132;21.062;2023-05-08T00:42:11;101723.59;;;11.48;69.06
39341;BME280;25059;52.132;21.062;2023-05-08T00:44:55;101730.00;;;11.36;70.82
39341;BME280;25059;52.132;21.062;2023-05-08T00:47:40;101735.38;;;11.30;69.82
39341;BME280;25059;52.132;21.062;2023-05-08T00:50:25;101735.09;;;10.99;71.79
39341;BME280;25059;52.132;21.062;2023-05-08T00:53:10;101731.00;;;11.29;70.60
39341;BME280;25059;52.132;21.062;2023-05-08T00:55:55;101733.63;;;11.30;71.64
39341;BME280;25059;52.132;21.062;2023-05-08T00:58:41;101738.09;;;11.25;71.01
39341;BME280;25059;52.132;21.062;2023-05-08T01:01:27;101729.44;;;11.63;68.89
39341;BME280;25059;52.132;21.062;2023-05-08T01:04:11;101737.13;;;11.73;68.34
39341;BME280;25059;52.132;21.062;2023-05-08T01:06:55;101744.13;;;11.74;68.20
39341;BME280;25059;52.132;21.062;2023-05-08T01:09:40;101751.06;;;11.79;68.14
39341;BME280;25059;52.132;21.062;2023-05-08T01:12:56;101754.06;;;12.03;66.53
39341;BME280;25059;52.132;21.062;2023-05-08T01:15:49;101746.19;;;12.01;66.15
39341;BME280;25059;52.132;21.062;2023-05-08T01:18:40;101749.03;;;11.92;66.89
39341;BME280;25059;52.132;21.062;2023-05-08T01:24:51;101757.19;;;11.37;70.14
39341;BME280;25059;52.132;21.062;2023-05-08T01:31:11;101764.56;;;11.62;69.43
39341;BME280;25059;52.132;21.062;2023-05-08T01:34:02;101762.22;;;11.49;69.74
39341;BME280;25059;52.132;21.062;2023-05-08T01:36:53;101749.94;;;11.48;69.12
39341;BME280;25059;52.132;21.062;2023-05-08T01:39:43;101765.19;;;11.75;67.96
39341;BME280;25059;52.132;21.062;2023-05-08T01:42:52;101764.41;;;11.70;67.60
39341;BME280;25059;52.132;21.062;2023-05-08T01:45:49;101751.16;;;11.73;68.19
39341;BME280;25059;52.132;21.062;2023-05-08T01:48:40;101754.41;;;11.44;69.04
39341;BME280;25059;52.132;21.062;2023-05-08T01:51:27;101763.00;;;11.54;68.84
39341;BME280;25059;52.132;21.062;2023-05-08T01:54:20;101776.88;;;11.62;68.01
39341;BME280;25059;52.132;21.062;2023-05-08T01:57:08;101774.19;;;11.65;67.41
39341;BME280;25059;52.132;21.062;2023-05-08T01:59:55;101771.31;;;11.77;67.50
39341;BME280;25059;52.132;21.062;2023-05-08T02:02:41;101773.44;;;11.58;67.94
39341;BME280;25059;52.132;21.062;2023-05-08T02:05:26;101776.88;;;11.62;67.19
39341;BME280;25059;52.132;21.062;2023-05-08T02:08:14;101774.50;;;11.50;67.58
39341;BME280;25059;52.132;21.062;2023-05-08T02:10:59;101776.59;;;11.31;68.03
39341;BME280;25059;52.132;21.062;2023-05-08T02:13:46;101785.75;;;11.12;69.63
39341;BME280;25059;52.132;21.062;2023-05-08T02:16:33;101793.19;;;11.36;68.80
39341;BME280;25059;52.132;21.062;2023-05-08T02:19:21;101778.03;;;11.49;67.69
39341;BME280;25059;52.132;21.062;2023-05-08T02:22:07;101784.31;;;11.42;67.76
39341;BME280;25059;52.132;21.062;2023-05-08T02:24:53;101792.69;;;11.62;67.75
39341;BME280;25059;52.132;21.062;2023-05-08T02:27:41;101781.78;;;11.36;68.08
39341;BME280;25059;52.132;21.062;2023-05-08T02:30:29;101795.56;;;11.50;67.38
39341;BME280;25059;52.132;21.062;2023-05-08T02:33:15;101786.09;;;11.40;67.00
39341;BME280;25059;52.132;21.062;2023-05-08T02:36:01;101793.25;;;11.33;67.40
39341;BME280;25059;52.132;21.062;2023-05-08T02:38:50;101785.25;;;11.38;68.27
39341;BME280;25059;52.132;21.062;2023-05-08T02:41:36;101790.91;;;11.18;68.78
39341;BME280;25059;52.132;21.062;2023-05-08T02:44:21;101796.16;;;11.18;69.04
39341;BME280;25059;52.132;21.062;2023-05-08T02:47:24;101791.44;;;11.35;67.97
39341;BME280;25059;52.132;21.062;2023-05-08T02:50:17;101797.59;;;11.36;68.01
39341;BME280;25059;52.132;21.062;2023-05-08T02:53:05;101765.06;;;11.38;67.63
39341;BME280;25059;52.132;21.062;2023-05-08T02:55:55;101790.66;;;11.30;68.64
39341;BME280;25059;52.132;21.062;2023-05-08T02:58:47;101785.25;;;11.38;68.41
39341;BME280;25059;52.132;21.062;2023-05-08T03:01:41;101786.09;;;11.40;68.32
39341;BME280;25059;52.132;21.062;2023-05-08T03:04:33;101792.34;;;11.34;68.44
39341;BME280;25059;52.132;21.062;2023-05-08T03:07:19;101788.72;;;11.40;68.73
39341;BME280;25059;52.132;21.062;2023-05-08T03:10:06;101778.03;;;11.47;68.31
39341;BME280;25059;52.132;21.062;2023-05-08T03:12:55;101777.19;;;11.47;67.93
39341;BME280;25059;52.132;21.062;2023-05-08T03:15:43;101787.09;;;11.32;68.60
39341;BME280;25059;52.132;21.062;2023-05-08T03:18:34;101788.72;;;11.40;69.24
39341;BME280;25059;52.132;21.062;2023-05-08T03:21:20;101790.44;;;11.42;69.11
39341;BME280;25059;52.132;21.062;2023-05-08T03:24:08;101802.53;;;11.52;68.89
39341;BME280;25059;52.132;21.062;2023-05-08T03:26:52;101795.78;;;11.38;69.88
39341;BME280;25059;52.132;21.062;2023-05-08T03:29:39;101801.84;;;11.43;69.93
39341;BME280;25059;52.132;21.062;2023-05-08T03:32:25;101800.94;;;11.44;70.34
39341;BME280;25059;52.132;21.062;2023-05-08T03:35:10;101806.75;;;11.61;69.76
39341;BME280;25059;52.132;21.062;2023-05-08T03:37:57;101802.66;;;11.91;68.70
39341;BME280;25059;52.132;21.062;2023-05-08T03:40:42;101812.38;;;11.87;68.46
39341;BME280;25059;52.132;21.062;2023-05-08T03:43:27;101800.94;;;11.88;68.73
39341;BME280;25059;52.132;21.062;2023-05-08T03:46:15;101804.25;;;11.98;69.79
39341;BME280;25059;52.132;21.062;2023-05-08T03:49:02;101811.22;;;12.01;70.26
39341;BME280;25059;52.132;21.062;2023-05-08T03:51:48;101818.00;;;12.12;69.99
39341;BME280;25059;52.132;21.062;2023-05-08T03:54:33;101815.59;;;12.42;69.36
39341;BME280;25059;52.132;21.062;2023-05-08T03:57:17;101812.47;;;12.61;68.80
39341;BME280;25059;52.132;21.062;2023-05-08T04:00:05;101807.88;;;12.70;69.09
39341;BME280;25059;52.132;21.062;2023-05-08T04:06:24;101807.63;;;12.80;68.49
39341;BME280;25059;52.132;21.062;2023-05-08T04:15:28;101815.44;;;13.20;69.32
39341;BME280;25059;52.132;21.062;2023-05-08T04:18:16;101809.94;;;13.28;69.37
39341;BME280;25059;52.132;21.062;2023-05-08T04:21:02;101828.63;;;13.53;68.62
39341;BME280;25059;52.132;21.062;2023-05-08T04:23:49;101833.06;;;13.52;68.89
39341;BME280;25059;52.132;21.062;2023-05-08T04:26:35;101844.38;;;13.57;68.69
39341;BME280;25059;52.132;21.062;2023-05-08T04:29:20;101825.47;;;13.71;68.26
39341;BME280;25059;52.132;21.062;2023-05-08T04:32:06;101830.28;;;13.57;69.16
39341;BME280;25059;52.132;21.062;2023-05-08T04:34:52;101839.53;;;13.73;69.19
39341;BME280;25059;52.132;21.062;2023-05-08T04:37:40;101835.63;;;13.86;69.06
39341;BME280;25059;52.132;21.062;2023-05-08T04:40:25;101846.75;;;13.67;69.87
39341;BME280;25059;52.132;21.062;2023-05-08T04:43:09;101850.72;;;13.50;70.52
39341;BME280;25059;52.132;21.062;2023-05-08T04:45:54;101848.63;;;14.23;68.38
39341;BME280;25059;52.132;21.062;2023-05-08T04:48:38;101855.25;;;14.38;68.08
39341;BME280;25059;52.132;21.062;2023-05-08T04:51:23;101855.25;;;14.38;68.11
39341;BME280;25059;52.132;21.062;2023-05-08T04:54:08;101857.78;;;14.41;67.61
39341;BME280;25059;52.132;21.062;2023-05-08T04:56:52;101861.91;;;14.51;67.97
39341;BME280;25059;52.132;21.062;2023-05-08T04:59:37;101865.34;;;14.83;65.67
39341;BME280;25059;52.132;21.062;2023-05-08T05:02:21;101864.78;;;15.00;65.79
39341;BME280;25059;52.132;21.062;2023-05-08T05:05:06;101873.03;;;14.91;65.84
39341;BME280;25059;52.132;21.062;2023-05-08T05:07:50;101855.09;;;14.72;65.42
39341;BME280;25059;52.132;21.062;2023-05-08T05:10:37;101864.31;;;15.13;65.05
39341;BME280;25059;52.132;21.062;2023-05-08T05:13:21;101869.81;;;15.34;64.40
39341;BME280;25059;52.132;21.062;2023-05-08T05:16:06;101868.22;;;15.28;64.99
39341;BME280;25059;52.132;21.062;2023-05-08T05:18:50;101859.03;;;15.13;64.96
39341;BME280;25059;52.132;21.062;2023-05-08T05:21:35;101867.59;;;15.46;64.37
39341;BME280;25059;52.132;21.062;2023-05-08T05:24:21;101869.75;;;15.62;62.19
39341;BME280;25059;52.132;21.062;2023-05-08T05:27:06;101867.75;;;15.42;61.61
39341;BME280;25059;52.132;21.062;2023-05-08T05:29:50;101864.53;;;15.83;62.11
39341;BME280;25059;52.132;21.062;2023-05-08T05:32:35;101871.66;;;16.06;60.79
39341;BME280;25059;52.132;21.062;2023-05-08T05:35:19;101885.88;;;15.80;60.63
39341;BME280;25059;52.132;21.062;2023-05-08T05:38:04;101878.28;;;15.95;58.80
39341;BME280;25059;52.132;21.062;2023-05-08T05:40:49;101878.72;;;15.82;58.56
39341;BME280;25059;52.132;21.062;2023-05-08T05:43:33;101885.50;;;15.66;57.86
39341;BME280;25059;52.132;21.062;2023-05-08T05:46:18;101880.66;;;15.77;56.78
39341;BME280;25059;52.132;21.062;2023-05-08T05:49:02;101867.94;;;16.34;55.36
39341;BME280;25059;52.132;21.062;2023-05-08T05:51:48;101875.44;;;16.69;54.77
39341;BME280;25059;52.132;21.062;2023-05-08T05:54:33;101876.47;;;17.09;53.69
39341;BME280;25059;52.132;21.062;2023-05-08T05:57:17;101887.16;;;16.86;53.48
39341;BME280;25059;52.132;21.062;2023-05-08T06:00:03;101893.22;;;16.89;53.33
39341;BME280;25059;52.132;21.062;2023-05-08T06:02:48;101883.19;;;17.18;52.27
39341;BME280;25059;52.132;21.062;2023-05-08T06:05:32;101885.25;;;17.31;52.33
39341;BME280;25059;52.132;21.062;2023-05-08T06:08:17;101875.56;;;17.51;52.07
39341;BME280;25059;52.132;21.062;2023-05-08T06:11:02;101882.75;;;17.49;52.23
39341;BME280;25059;52.132;21.062;2023-05-08T06:13:50;101886.47;;;17.65;51.20
39341;BME280;25059;52.132;21.062;2023-05-08T06:16:35;101882.41;;;17.56;50.77
39341;BME280;25059;52.132;21.062;2023-05-08T06:19:19;101874.63;;;17.52;50.44
39341;BME280;25059;52.132;21.062;2023-05-08T06:22:04;101888.66;;;17.55;51.05
39341;BME280;25059;52.132;21.062;2023-05-08T06:24:50;101895.56;;;17.39;50.54
39341;BME280;25059;52.132;21.062;2023-05-08T06:27:38;101885.13;;;17.34;51.36
39341;BME280;25059;52.132;21.062;2023-05-08T06:30:22;101890.34;;;17.78;51.12
39341;BME280;25059;52.132;21.062;2023-05-08T06:33:10;101888.75;;;17.74;51.04
39341;BME280;25059;52.132;21.062;2023-05-08T06:35:54;101873.22;;;18.04;49.50
39341;BME280;25059;52.132;21.062;2023-05-08T06:38:43;101871.78;;;18.34;48.34
39341;BME280;25059;52.132;21.062;2023-05-08T06:41:27;101874.16;;;18.22;48.72
39341;BME280;25059;52.132;21.062;2023-05-08T06:44:12;101883.09;;;18.39;47.62
39341;BME280;25059;52.132;21.062;2023-05-08T06:46:57;101882.00;;;18.81;46.82
39341;BME280;25059;52.132;21.062;2023-05-08T06:49:42;101881.63;;;18.89;44.89
39341;BME280;25059;52.132;21.062;2023-05-08T06:52:27;101863.00;;;18.51;44.74
39341;BME280;25059;52.132;21.062;2023-05-08T06:55:12;101878.72;;;18.76;44.09
39341;BME280;25059;52.132;21.062;2023-05-08T06:57:57;101881.78;;;18.86;43.35
39341;BME280;25059;52.132;21.062;2023-05-08T07:00:42;101877.03;;;18.92;42.64
39341;BME280;25059;52.132;21.062;2023-05-08T07:03:27;101868.53;;;18.84;42.94
39341;BME280;25059;52.132;21.062;2023-05-08T07:06:11;101872.28;;;19.16;41.71
39341;BME280;25059;52.132;21.062;2023-05-08T07:12:32;101865.75;;;19.04;41.69
39341;BME280;25059;52.132;21.062;2023-05-08T07:15:17;101875.00;;;19.15;41.72
39341;BME280;25059;52.132;21.062;2023-05-08T07:18:02;101880.03;;;19.38;41.78
39341;BME280;25059;52.132;21.062;2023-05-08T07:20:47;101879.56;;;18.77;41.60
39341;BME280;25059;52.132;21.062;2023-05-08T07:23:31;101874.22;;;18.58;42.91
39341;BME280;25059;52.132;21.062;2023-05-08T07:26:16;101865.31;;;18.78;41.83
39341;BME280;25059;52.132;21.062;2023-05-08T07:29:02;101884.81;;;19.31;40.89
39341;BME280;25059;52.132;21.062;2023-05-08T07:31:46;101875.50;;;19.57;41.14
39341;BME280;25059;52.132;21.062;2023-05-08T07:34:32;101878.78;;;19.80;41.06
39341;BME280;25059;52.132;21.062;2023-05-08T07:37:17;101870.94;;;19.08;40.34
39341;BME280;25059;52.132;21.062;2023-05-08T07:40:02;101875.66;;;19.37;40.61
39341;BME280;25059;52.132;21.062;2023-05-08T07:42:46;101871.56;;;19.13;41.93
39341;BME280;25059;52.132;21.062;2023-05-08T07:45:31;101858.13;;;18.97;41.98
39341;BME280;25059;52.132;21.062;2023-05-08T07:48:17;101875.88;;;19.15;42.08
39341;BME280;25059;52.132;21.062;2023-05-08T07:51:03;101871.81;;;19.43;41.33
39341;BME280;25059;52.132;21.062;2023-05-08T07:53:47;101884.94;;;19.97;40.12
39341;BME280;25059;52.132;21.062;2023-05-08T07:56:34;101878.13;;;19.92;39.93
39341;BME280;25059;52.132;21.062;2023-05-08T07:59:19;101857.69;;;20.24;39.46
39341;BME280;25059;52.132;21.062;2023-05-08T08:02:04;101875.72;;;20.83;38.72
39341;BME280;25059;52.132;21.062;2023-05-08T08:04:49;101865.53;;;20.90;37.34
39341;BME280;25059;52.132;21.062;2023-05-08T08:07:34;101863.06;;;20.40;36.79
39341;BME280;25059;52.132;21.062;2023-05-08T08:10:19;101865.84;;;20.54;37.30
39341;BME280;25059;52.132;21.062;2023-05-08T08:13:04;101851.66;;;20.83;36.23
39341;BME280;25059;52.132;21.062;2023-05-08T08:15:49;101861.94;;;20.75;36.95
39341;BME280;25059;52.132;21.062;2023-05-08T08:18:39;101862.66;;;21.09;36.29
39341;BME280;25059;52.132;21.062;2023-05-08T08:21:24;101867.44;;;21.78;35.58
39341;BME280;25059;52.132;21.062;2023-05-08T08:24:09;101864.56;;;21.95;34.49
39341;BME280;25059;52.132;21.062;2023-05-08T08:26:54;101856.53;;;21.95;34.15
39341;BME280;25059;52.132;21.062;2023-05-08T08:29:39;101855.09;;;22.73;33.42
39341;BME280;25059;52.132;21.062;2023-05-08T08:32:24;101855.03;;;22.19;33.89
39341;BME280;25059;52.132;21.062;2023-05-08T08:35:10;101842.81;;;22.42;33.89
39341;BME280;25059;52.132;21.062;2023-05-08T08:37:57;101830.72;;;22.91;32.42
39341;BME280;25059;52.132;21.062;2023-05-08T08:40:42;101836.09;;;23.43;32.71
39341;BME280;25059;52.132;21.062;2023-05-08T08:43:26;101847.94;;;23.66;32.51
39341;BME280;25059;52.132;21.062;2023-05-08T08:46:18;101836.94;;;23.43;32.15
39341;BME280;25059;52.132;21.062;2023-05-08T08:49:06;101842.13;;;23.84;31.47
39341;BME280;25059;52.132;21.062;2023-05-08T08:51:58;101841.50;;;23.68;31.79
39341;BME280;25059;52.132;21.062;2023-05-08T08:54:48;101847.69;;;23.43;31.52
39341;BME280;25059;52.132;21.062;2023-05-08T08:57:36;101848.06;;;23.77;30.24
39341;BME280;25059;52.132;21.062;2023-05-08T09:00:27;101819.78;;;23.97;30.00
39341;BME280;25059;52.132;21.062;2023-05-08T09:03:16;101845.31;;;24.15;30.50
39341;BME280;25059;52.132;21.062;2023-05-08T09:06:01;101836.06;;;24.32;30.29
39341;BME280;25059;52.132;21.062;2023-05-08T09:08:50;101842.44;;;24.05;29.13
39341;BME280;25059;52.132;21.062;2023-05-08T09:11:36;101837.19;;;24.77;29.06
39341;BME280;25059;52.132;21.062;2023-05-08T09:14:22;101845.31;;;24.15;28.39
39341;BME280;25059;52.132;21.062;2023-05-08T09:17:10;101836.50;;;24.13;29.13
39341;BME280;25059;52.132;21.062;2023-05-08T09:19:56;101834.19;;;23.58;28.78
39341;BME280;25059;52.132;21.062;2023-05-08T09:22:42;101841.47;;;24.06;28.32
39341;BME280;25059;52.132;21.062;2023-05-08T09:25:42;101837.16;;;24.29;29.06
39341;BME280;25059;52.132;21.062;2023-05-08T09:28:27;101825.94;;;24.23;27.95
39341;BME280;25059;52.132;21.062;2023-05-08T09:31:12;101827.44;;;24.87;27.13
39341;BME280;25059;52.132;21.062;2023-05-08T09:33:58;101816.91;;;24.24;28.62
39341;BME280;25059;52.132;21.062;2023-05-08T09:36:43;101829.91;;;24.42;28.17
39341;BME280;25059;52.132;21.062;2023-05-08T09:39:28;101829.75;;;24.57;27.72
39341;BME280;25059;52.132;21.062;2023-05-08T09:45:50;101819.00;;;24.07;28.43
39341;BME280;25059;52.132;21.062;2023-05-08T09:48:36;101813.84;;;24.54;27.37
39341;BME280;25059;52.132;21.062;2023-05-08T09:51:22;101820.19;;;25.00;25.76
39341;BME280;25059;52.132;21.062;2023-05-08T09:54:16;101821.31;;;25.09;26.23
39341;BME280;25059;52.132;21.062;2023-05-08T09:57:10;101824.88;;;24.86;25.48
39341;BME280;25059;52.132;21.062;2023-05-08T10:00:12;101821.28;;;24.74;25.34
39341;BME280;25059;52.132;21.062;2023-05-08T10:03:00;101812.22;;;25.45;25.93
39341;BME280;25059;52.132;21.062;2023-05-08T10:05:48;101821.09;;;24.88;24.86
39341;BME280;25059;52.132;21.062;2023-05-08T10:08:33;101822.25;;;24.97;25.97
39341;BME280;25059;52.132;21.062;2023-05-08T10:11:18;101806.44;;;24.92;26.25
39341;BME280;25059;52.132;21.062;2023-05-08T10:14:03;101801.59;;;26.22;25.28
39341;BME280;25059;52.132;21.062;2023-05-08T10:16:50;101802.28;;;28.82;23.90
39341;BME280;25059;52.132;21.062;2023-05-08T10:19:37;101800.28;;;31.40;21.05
39341;BME280;25059;52.132;21.062;2023-05-08T10:26:14;101801.03;;;28.96;20.87
39341;BME280;25059;52.132;21.062;2023-05-08T10:29:06;101803.66;;;28.28;21.47
39341;BME280;25059;52.132;21.062;2023-05-08T10:31:58;101801.03;;;30.53;19.90
39341;BME280;25059;52.132;21.062;2023-05-08T10:34:51;101788.09;;;32.21;18.00
39341;BME280;25059;52.132;21.062;2023-05-08T10:37:38;101785.53;;;32.86;17.73
39341;BME280;25059;52.132;21.062;2023-05-08T10:40:25;101785.97;;;33.62;17.14
39341;BME280;25059;52.132;21.062;2023-05-08T10:43:11;101791.78;;;32.03;17.74
39341;BME280;25059;52.132;21.062;2023-05-08T10:45:56;101796.50;;;31.33;18.15
39341;BME280;25059;52.132;21.062;2023-05-08T10:48:47;101794.16;;;30.14;18.95
39341;BME280;25059;52.132;21.062;2023-05-08T10:51:42;101774.56;;;30.56;19.55
39341;BME280;25059;52.132;21.062;2023-05-08T10:57:36;101782.34;;;30.05;19.70
39341;BME280;25059;52.132;21.062;2023-05-08T11:00:21;101774.81;;;32.18;18.02
39341;BME280;25059;52.132;21.062;2023-05-08T11:03:07;101783.31;;;35.39;16.75
39341;BME280;25059;52.132;21.062;2023-05-08T11:05:53;101783.56;;;37.52;15.10
39341;BME280;25059;52.132;21.062;2023-05-08T11:08:49;101777.28;;;38.67;13.59
39341;BME280;25059;52.132;21.062;2023-05-08T11:11:38;101779.22;;;38.99;13.89
39341;BME280;25059;52.132;21.062;2023-05-08T11:14:25;101775.56;;;40.16;13.43
39341;BME280;25059;52.132;21.062;2023-05-08T11:17:12;101774.91;;;39.63;13.31
39341;BME280;25059;52.132;21.062;2023-05-08T11:19:59;101768.56;;;39.62;12.16
39341;BME280;25059;52.132;21.062;2023-05-08T11:22:46;101749.59;;;38.95;12.37
39341;BME280;25059;52.132;21.062;2023-05-08T11:25:46;101753.06;;;42.88;11.83
39341;BME280;25059;52.132;21.062;2023-05-08T11:28:36;101759.97;;;42.68;11.47
39341;BME280;25059;52.132;21.062;2023-05-08T11:31:22;101759.03;;;43.67;10.80
39341;BME280;25059;52.132;21.062;2023-05-08T11:37:28;101756.06;;;44.88;9.92
39341;BME280;25059;52.132;21.062;2023-05-08T11:43:30;101749.31;;;39.42;11.78
39341;BME280;25059;52.132;21.062;2023-05-08T11:46:21;101746.06;;;39.72;11.47
39341;BME280;25059;52.132;21.062;2023-05-08T11:49:10;101756.97;;;39.01;12.23
39341;BME280;25059;52.132;21.062;2023-05-08T11:51:57;101753.91;;;34.80;13.75
39341;BME280;25059;52.132;21.062;2023-05-08T11:54:44;101752.38;;;35.82;13.52
39341;BME280;25059;52.132;21.062;2023-05-08T11:57:30;101741.06;;;37.76;12.40
39341;BME280;25059;52.132;21.062;2023-05-08T12:00:16;101748.06;;;39.38;12.17
39341;BME280;25059;52.132;21.062;2023-05-08T12:03:06;101743.94;;;41.07;10.83
39341;BME280;25059;52.132;21.062;2023-05-08T12:05:50;101732.41;;;41.53;11.48
39341;BME280;25059;52.132;21.062;2023-05-08T12:08:37;101739.41;;;42.75;10.17
39341;BME280;25059;52.132;21.062;2023-05-08T12:11:23;101742.69;;;43.07;10.06
39341;BME280;25059;52.132;21.062;2023-05-08T12:14:10;101746.06;;;39.72;10.82
39341;BME280;25059;52.132;21.062;2023-05-08T12:16:54;101740.91;;;38.71;12.11
39341;BME280;25059;52.132;21.062;2023-05-08T12:19:39;101745.13;;;38.94;11.30
39341;BME280;25059;52.132;21.062;2023-05-08T12:22:24;101724.50;;;41.56;11.19
39341;BME280;25059;52.132;21.062;2023-05-08T12:25:09;101727.09;;;42.06;10.22
39341;BME280;25059;52.132;21.062;2023-05-08T12:27:59;101722.94;;;42.27;10.44
39341;BME280;25059;52.132;21.062;2023-05-08T12:30:44;101734.03;;;40.99;10.46
39341;BME280;25059;52.132;21.062;2023-05-08T12:33:29;101725.41;;;38.31;12.04
39341;BME280;25059;52.132;21.062;2023-05-08T12:36:14;101730.66;;;35.66;12.93
39341;BME280;25059;52.132;21.062;2023-05-08T12:39:15;101725.16;;;34.47;13.71
39341;BME280;25059;52.132;21.062;2023-05-08T12:42:01;101731.19;;;36.91;13.30
39341;BME280;25059;52.132;21.062;2023-05-08T12:44:50;101711.47;;;39.25;11.95
39341;BME280;25059;52.132;21.062;2023-05-08T12:47:36;101718.94;;;41.63;10.56
39341;BME280;25059;52.132;21.062;2023-05-08T12:50:20;101713.50;;;42.05;10.73
39341;BME280;25059;52.132;21.062;2023-05-08T12:53:10;101713.63;;;42.51;9.32
39341;BME280;25059;52.132;21.062;2023-05-08T12:55:59;101711.75;;;43.34;9.89
39341;BME280;25059;52.132;21.062;2023-05-08T12:58:44;101707.28;;;44.13;9.82
39341;BME280;25059;52.132;21.062;2023-05-08T13:01:29;101708.66;;;44.27;9.12
39341;BME280;25059;52.132;21.062;2023-05-08T13:04:14;101710.56;;;45.71;9.43
39341;BME280;25059;52.132;21.062;2023-05-08T13:06:58;101697.63;;;45.38;8.90
39341;BME280;25059;52.132;21.062;2023-05-08T13:09:59;101714.19;;;46.89;8.84
39341;BME280;25059;52.132;21.062;2023-05-08T13:12:47;101696.06;;;45.47;9.38
39341;BME280;25059;52.132;21.062;2023-05-08T13:15:32;101695.41;;;45.84;9.31
39341;BME280;25059;52.132;21.062;2023-05-08T13:18:18;101689.78;;;45.57;8.93
39341;BME280;25059;52.132;21.062;2023-05-08T13:21:03;101699.72;;;46.92;8.69
39341;BME280;25059;52.132;21.062;2023-05-08T13:23:48;101692.91;;;46.73;8.75
39341;BME280;25059;52.132;21.062;2023-05-08T13:26:33;101695.13;;;46.71;8.58
39341;BME280;25059;52.132;21.062;2023-05-08T13:29:17;101688.25;;;46.84;8.28
39341;BME280;25059;52.132;21.062;2023-05-08T13:32:05;101686.00;;;48.46;7.70
39341;BME280;25059;52.132;21.062;2023-05-08T13:34:50;101681.97;;;49.78;7.29
39341;BME280;25059;52.132;21.062;2023-05-08T13:37:35;101683.94;;;44.76;8.65
39341;BME280;25059;52.132;21.062;2023-05-08T13:40:20;101689.00;;;39.28;10.64
39341;BME280;25059;52.132;21.062;2023-05-08T13:43:04;101677.13;;;40.80;10.36
39341;BME280;25059;52.132;21.062;2023-05-08T13:45:52;101686.81;;;44.02;8.93
39341;BME280;25059;52.132;21.062;2023-05-08T13:48:37;101668.34;;;46.65;7.82
39341;BME280;25059;52.132;21.062;2023-05-08T13:51:21;101670.34;;;41.19;9.64
39341;BME280;25059;52.132;21.062;2023-05-08T13:54:06;101729.03;;;42.47;9.63
39341;BME280;25059;52.132;21.062;2023-05-08T13:56:53;101770.97;;;44.08;8.84
39341;BME280;25059;52.132;21.062;2023-05-08T13:59:38;101663.00;;;44.35;8.96
39341;BME280;25059;52.132;21.062;2023-05-08T14:02:23;101666.19;;;38.94;10.50
39341;BME280;25059;52.132;21.062;2023-05-08T14:05:07;101715.88;;;39.97;10.71
39341;BME280;25059;52.132;21.062;2023-05-08T14:07:52;101678.88;;;43.14;9.20
39341;BME280;25059;52.132;21.062;2023-05-08T14:10:37;101668.72;;;42.26;9.55
39341;BME280;25059;52.132;21.062;2023-05-08T14:13:22;101666.25;;;40.35;10.11
39341;BME280;25059;52.132;21.062;2023-05-08T14:16:07;101690.13;;;38.47;11.29
39341;BME280;25059;52.132;21.062;2023-05-08T14:18:53;101664.06;;;36.59;11.59
39341;BME280;25059;52.132;21.062;2023-05-08T14:21:37;101655.34;;;36.28;12.02
39341;BME280;25059;52.132;21.062;2023-05-08T14:24:22;101653.03;;;34.56;13.22
39341;BME280;25059;52.132;21.062;2023-05-08T14:27:07;101655.22;;;38.74;11.47
39341;BME280;25059;52.132;21.062;2023-05-08T14:29:51;101651.75;;;39.25;11.22
39341;BME280;25059;52.132;21.062;2023-05-08T14:32:37;101650.50;;;42.60;8.96
39341;BME280;25059;52.132;21.062;2023-05-08T14:35:21;101643.78;;;39.62;10.88
39341;BME280;25059;52.132;21.062;2023-05-08T14:38:06;101650.88;;;40.46;10.04
39341;BME280;25059;52.132;21.062;2023-05-08T14:40:51;101638.44;;;41.41;10.17
39341;BME280;25059;52.132;21.062;2023-05-08T14:43:37;101642.06;;;42.55;10.73
39341;BME280;25059;52.132;21.062;2023-05-08T14:46:22;101647.69;;;43.30;9.72
39341;BME280;25059;52.132;21.062;2023-05-08T14:49:08;101650.03;;;42.86;9.41
39341;BME280;25059;52.132;21.062;2023-05-08T14:51:52;101653.47;;;43.29;8.99
39341;BME280;25059;52.132;21.062;2023-05-08T14:54:37;101645.84;;;43.76;9.24
39341;BME280;25059;52.132;21.062;2023-05-08T14:57:22;101641.97;;;44.89;8.49